Dexter, Oregon
Current Conditions -  °F | °C
As of 8:54 PM on Saturday 22 Nov 2014 (Local Time) from KEUG Reporting Station
Few Clouds Few Clouds  
Wind Chill: 36°   Ceiling: Unl
Heat Index: 40°   Visibility: 10mi
Dew Point: 39°   Wind: 6mph
Humidity: 97%   Direction: 200°SSW
Pressure: 30.25"   Gusts: NA
Location:  43.92°N, 122.83°W
Report Text: KEUG 230454Z 20005KT 10SM FEW050 04/04 A3025 RMK AO2 SLP244 T00440039
Loading
Personal Weather Stations






























Interactive Weather Map New forecast layout! Learn more

10-Day Weather Forecast

Advertisements
Track Severe Weather on mobile